Time;durP1;ratioP1;P1;durP2;ratioP2;P2;SDS_P1;SDS_P2;PMS_P1;PMS_P2;Temp;Humidity;BMP_temperature;BMP_pressure;BME280_temperature;BME280_humidity;BME280_pressure;Samples;Min_cycle;Max_cycle;Signal;HPM_P1;HPM_P2
2022/07/14 00:02:02;;;;;;;6.73;1.93;;;;;204.60;224519.00;;;;5065109;28;20382;-65
2022/07/14 00:04:49;;;;;;;5.83;1.70;;;;;204.60;224519.00;;;;5058775;28;20434;-67
2022/07/14 00:07:36;;;;;;;3.93;1.60;;;;;204.60;224519.00;;;;5059664;28;20251;-68
2022/07/14 00:10:22;;;;;;;5.80;1.87;;;;;204.60;224519.00;;;;5054496;28;20377;-65
2022/07/14 00:13:08;;;;;;;5.13;1.93;;;;;204.60;224519.00;;;;5060195;28;20236;-67
2022/07/14 00:15:54;;;;;;;3.47;1.70;;;;;204.60;224519.00;;;;5061986;28;20334;-65
2022/07/14 00:18:44;;;;;;;4.50;1.87;;;;;204.60;224519.00;;;;5067154;28;20243;-67
2022/07/14 00:21:31;;;;;;;3.90;1.67;;;;;204.60;224519.00;;;;5065816;28;20286;-67
2022/07/14 00:24:18;;;;;;;6.70;2.00;;;;;204.60;224519.00;;;;5064441;28;20617;-67
2022/07/14 00:27:04;;;;;;;4.20;1.70;;;;;204.60;224519.00;;;;5061404;28;20371;-67
2022/07/14 00:29:51;;;;;;;8.73;1.83;;;;;204.60;224519.00;;;;5061680;28;20247;-65
2022/07/14 00:32:37;;;;;;;4.33;1.90;;;;;204.60;224519.00;;;;5065333;28;20710;-67
2022/07/14 00:35:24;;;;;;;8.80;1.70;;;;;204.60;224519.00;;;;5063931;28;20228;-67
2022/07/14 00:38:11;;;;;;;7.80;1.67;;;;;204.60;224519.00;;;;5059462;28;20369;-66
2022/07/14 00:40:58;;;;;;;3.90;1.90;;;;;204.60;224519.00;;;;5064433;28;20708;-66
2022/07/14 00:43:44;;;;;;;5.43;1.90;;;;;204.60;224519.00;;;;5063070;28;20253;-66
2022/07/14 00:46:31;;;;;;;3.97;2.07;;;;;204.60;224519.00;;;;5058547;28;20230;-67
2022/07/14 00:49:36;;;;;;;6.80;2.17;;;;;204.60;224519.00;;;;5067229;28;20244;-68
2022/07/14 00:52:25;;;;;;;7.07;1.90;;;;;204.60;224519.00;;;;5063878;28;20231;-65
2022/07/14 00:55:14;;;;;;;4.23;1.90;;;;;204.60;224519.00;;;;5055520;28;20232;-69
2022/07/14 00:58:00;;;;;;;5.63;1.87;;;;;204.60;224519.00;;;;5062633;28;20235;-67
2022/07/14 01:00:47;;;;;;;4.20;1.90;;;;;204.60;224519.00;;;;5061413;28;20235;-65
2022/07/14 01:03:33;;;;;;;5.80;1.77;;;;;204.60;224519.00;;;;5062274;28;20258;-69
2022/07/14 01:06:19;;;;;;;4.40;2.03;;;;;204.60;224519.00;;;;5063042;28;20235;-68
2022/07/14 01:09:06;;;;;;;5.80;2.30;;;;;204.60;224519.00;;;;5066946;28;20232;-67
2022/07/14 01:11:53;;;;;;;5.30;2.10;;;;;204.60;224519.00;;;;5056285;28;20597;-68
2022/07/14 01:14:41;;;;;;;2.43;1.90;;;;;204.60;224519.00;;;;5063488;28;20240;-69
2022/07/14 01:17:27;;;;;;;3.53;2.00;;;;;204.60;224519.00;;;;5064005;28;20302;-66
2022/07/14 01:20:13;;;;;;;7.97;2.17;;;;;204.60;224519.00;;;;5066049;28;20619;-65
2022/07/14 01:23:02;;;;;;;6.97;2.60;;;;;204.60;224519.00;;;;5055904;28;21017;-68
2022/07/14 01:25:48;;;;;;;6.40;1.70;;;;;204.60;224519.00;;;;5052795;28;20224;-68
2022/07/14 01:28:35;;;;;;;5.27;1.90;;;;;204.60;224519.00;;;;5061880;28;20266;-68
2022/07/14 01:31:21;;;;;;;5.87;1.90;;;;;204.60;224519.00;;;;5067087;28;20315;-65
2022/07/14 01:34:07;;;;;;;6.37;2.27;;;;;204.60;224519.00;;;;5058944;28;20236;-66
2022/07/14 01:36:54;;;;;;;5.57;1.83;;;;;204.60;224519.00;;;;5060221;28;20224;-68
2022/07/14 01:39:42;;;;;;;4.53;2.07;;;;;204.60;224519.00;;;;5062033;28;20306;-67
2022/07/14 01:42:28;;;;;;;6.00;2.00;;;;;204.60;224519.00;;;;5059403;28;20728;-68
2022/07/14 01:45:14;;;;;;;7.43;2.07;;;;;204.60;224519.00;;;;5064008;28;20237;-65
2022/07/14 01:48:00;;;;;;;2.93;1.80;;;;;204.60;224519.00;;;;5053714;28;20907;-67
2022/07/14 01:50:46;;;;;;;6.03;2.20;;;;;204.60;224519.00;;;;5065892;28;20231;-69
2022/07/14 01:53:32;;;;;;;8.47;2.10;;;;;204.60;224519.00;;;;5062089;28;20232;-64
2022/07/14 01:56:21;;;;;;;7.50;1.80;;;;;204.60;224519.00;;;;5065038;28;20778;-68
2022/07/14 01:59:07;;;;;;;9.97;2.17;;;;;204.60;224519.00;;;;5064082;28;20721;-66
2022/07/14 02:01:53;;;;;;;5.60;2.13;;;;;204.60;224519.00;;;;5060375;28;20224;-67
2022/07/14 02:04:40;;;;;;;4.87;1.90;;;;;204.60;224519.00;;;;5060324;28;20306;-66
2022/07/14 02:07:26;;;;;;;10.30;1.90;;;;;204.60;224519.00;;;;5063936;28;20254;-68
2022/07/14 02:13:18;;;;;;;6.83;2.60;;;;;204.60;224519.00;;;;5062386;28;20240;-67
2022/07/14 02:16:05;;;;;;;5.67;1.80;;;;;204.60;224519.00;;;;5060573;28;20232;-67
2022/07/14 02:18:51;;;;;;;3.67;2.27;;;;;204.60;224519.00;;;;5061579;28;20780;-69
2022/07/14 02:21:39;;;;;;;5.63;1.80;;;;;204.60;224519.00;;;;5063666;28;20275;-69
2022/07/14 02:24:25;;;;;;;8.57;2.30;;;;;204.60;224519.00;;;;5058802;28;20235;-67
2022/07/14 02:27:11;;;;;;;7.53;2.40;;;;;204.60;224519.00;;;;5061167;28;20228;-68
2022/07/14 02:29:59;;;;;;;5.20;2.30;;;;;204.60;224519.00;;;;5053258;28;20255;-68
2022/07/14 02:32:45;;;;;;;8.07;2.20;;;;;204.60;224519.00;;;;5064493;28;20265;-65
2022/07/14 02:35:32;;;;;;;5.20;2.10;;;;;204.60;224519.00;;;;5062258;28;20220;-68
2022/07/14 02:38:18;;;;;;;5.07;2.10;;;;;204.60;224519.00;;;;5063104;28;20357;-66
2022/07/14 02:41:05;;;;;;;5.30;2.03;;;;;204.60;224519.00;;;;5064039;28;20310;-67
2022/07/14 02:43:52;;;;;;;8.07;2.50;;;;;204.60;224519.00;;;;5058960;28;20236;-67
2022/07/14 02:46:40;;;;;;;11.53;2.57;;;;;204.60;224519.00;;;;5064449;28;20274;-67
2022/07/14 02:49:26;;;;;;;12.90;2.03;;;;;204.60;224519.00;;;;5059419;28;21008;-64
2022/07/14 02:52:13;;;;;;;6.83;2.20;;;;;204.60;224519.00;;;;5063886;28;20232;-67
2022/07/14 02:55:00;;;;;;;7.87;1.97;;;;;204.60;224519.00;;;;5056155;28;20240;-66
2022/07/14 02:57:46;;;;;;;10.97;2.50;;;;;204.60;224519.00;;;;5062998;28;20597;-67
2022/07/14 03:00:33;;;;;;;4.27;2.00;;;;;204.60;224519.00;;;;5062246;28;20228;-68
2022/07/14 03:03:21;;;;;;;5.63;2.23;;;;;204.60;224519.00;;;;5061310;28;20242;-66
2022/07/14 03:06:09;;;;;;;5.93;1.83;;;;;204.60;224519.00;;;;5051480;28;20676;-67
2022/07/14 03:08:56;;;;;;;6.93;2.27;;;;;204.60;224519.00;;;;5058083;28;20235;-66
2022/07/14 03:11:42;;;;;;;3.10;1.87;;;;;204.60;224519.00;;;;5063333;28;20701;-67
2022/07/14 03:14:29;;;;;;;7.80;2.20;;;;;204.60;224519.00;;;;5064580;28;20713;-67
2022/07/14 03:17:16;;;;;;;6.20;1.93;;;;;204.60;224519.00;;;;5058207;28;20626;-67
2022/07/14 03:20:06;;;;;;;5.27;2.00;;;;;204.60;224519.00;;;;5058231;28;20228;-67
2022/07/14 03:22:52;;;;;;;9.37;2.33;;;;;204.60;224519.00;;;;5058543;28;20370;-66
2022/07/14 03:25:42;;;;;;;4.60;2.00;;;;;204.60;224519.00;;;;5064526;28;20224;-68
2022/07/14 03:28:29;;;;;;;4.27;1.90;;;;;204.60;224519.00;;;;5061483;28;20286;-66
2022/07/14 03:31:15;;;;;;;6.10;1.93;;;;;204.60;224519.00;;;;5058055;28;20278;-67
2022/07/14 03:34:01;;;;;;;7.73;1.87;;;;;204.60;224519.00;;;;5048071;28;20243;-68
2022/07/14 03:36:49;;;;;;;11.27;2.40;;;;;204.60;224519.00;;;;5060625;28;20224;-67
2022/07/14 03:39:35;;;;;;;13.87;2.33;;;;;204.60;224519.00;;;;5063115;28;20231;-67
2022/07/14 03:42:23;;;;;;;6.40;2.20;;;;;204.60;224519.00;;;;5061340;28;20727;-66
2022/07/14 03:45:09;;;;;;;5.20;1.80;;;;;204.60;224519.00;;;;5062008;28;20239;-66
2022/07/14 03:47:56;;;;;;;7.23;2.27;;;;;204.60;224519.00;;;;5067607;28;20228;-65
2022/07/14 03:50:42;;;;;;;7.17;2.30;;;;;204.60;224519.00;;;;5057879;28;20767;-67
2022/07/14 03:53:30;;;;;;;10.57;2.40;;;;;204.60;224519.00;;;;5068335;28;20285;-66
2022/07/14 03:56:16;;;;;;;7.90;2.03;;;;;204.60;224519.00;;;;5066826;28;20240;-67
2022/07/14 03:59:02;;;;;;;9.00;2.33;;;;;204.60;224519.00;;;;5065965;28;20227;-65
2022/07/14 04:01:49;;;;;;;7.20;2.50;;;;;204.60;224519.00;;;;5067721;28;20230;-66
2022/07/14 04:04:35;;;;;;;3.73;2.00;;;;;204.60;224519.00;;;;5062447;28;20242;-68
2022/07/14 04:07:22;;;;;;;9.10;2.43;;;;;204.60;224519.00;;;;5059772;28;20228;-66
2022/07/14 04:10:10;;;;;;;10.27;2.17;;;;;204.60;224519.00;;;;5058688;28;20343;-68
2022/07/14 04:12:56;;;;;;;6.63;1.80;;;;;204.60;224519.00;;;;5062228;28;20234;-65
2022/07/14 04:15:43;;;;;;;7.00;2.57;;;;;204.60;224519.00;;;;5065959;28;20227;-67
2022/07/14 04:18:29;;;;;;;6.03;2.30;;;;;204.60;224519.00;;;;5054280;28;20600;-67
2022/07/14 04:21:16;;;;;;;7.07;2.20;;;;;204.60;224519.00;;;;5063495;28;20224;-67
2022/07/14 04:24:03;;;;;;;4.00;1.93;;;;;204.60;224519.00;;;;5059917;28;20239;-65
2022/07/14 04:26:51;;;;;;;8.03;2.20;;;;;204.60;224519.00;;;;5065901;28;20599;-67
2022/07/14 04:29:38;;;;;;;6.30;1.80;;;;;204.60;224519.00;;;;5068226;28;20240;-66
2022/07/14 04:32:24;;;;;;;5.03;2.27;;;;;204.60;224519.00;;;;5064768;28;20268;-65
2022/07/14 04:35:11;;;;;;;8.07;2.10;;;;;204.60;224519.00;;;;5067369;28;20229;-67
2022/07/14 04:37:57;;;;;;;7.07;2.63;;;;;204.60;224519.00;;;;5054400;28;20234;-66
2022/07/14 04:40:47;;;;;;;6.00;2.30;;;;;204.60;224519.00;;;;5065812;28;20227;-67
2022/07/14 04:43:35;;;;;;;4.13;2.43;;;;;204.60;224519.00;;;;5065648;28;20333;-65
2022/07/14 04:46:21;;;;;;;6.70;2.30;;;;;204.60;224519.00;;;;5065368;28;20586;-68
2022/07/14 04:52:12;;;;;;;6.87;2.10;;;;;204.60;224519.00;;;;5063054;28;20228;-67
2022/07/14 04:55:04;;;;;;;7.03;2.30;;;;;204.60;224519.00;;;;5054255;28;20719;-69
2022/07/14 04:57:51;;;;;;;8.07;2.43;;;;;204.60;224519.00;;;;5061237;28;20736;-67
2022/07/14 05:00:38;;;;;;;10.33;2.40;;;;;204.60;224519.00;;;;5049808;28;20238;-67
2022/07/14 05:03:24;;;;;;;4.13;2.37;;;;;204.60;224519.00;;;;5060565;28;20304;-66
2022/07/14 05:06:11;;;;;;;6.43;2.30;;;;;204.60;224519.00;;;;5063147;28;20238;-68
2022/07/14 05:08:57;;;;;;;6.73;2.10;;;;;204.60;224519.00;;;;5066586;28;20235;-66
2022/07/14 05:11:44;;;;;;;4.53;2.03;;;;;204.60;224519.00;;;;5056050;28;20225;-65
2022/07/14 05:14:30;;;;;;;4.77;2.30;;;;;204.60;224519.00;;;;5061744;28;20316;-67
2022/07/14 05:17:18;;;;;;;3.50;1.93;;;;;204.60;224519.00;;;;5060848;28;20242;-68
2022/07/14 05:20:11;;;;;;;5.27;2.40;;;;;204.60;224519.00;;;;5063892;28;20232;-67
2022/07/14 05:22:57;;;;;;;6.70;2.23;;;;;204.60;224519.00;;;;5062110;28;20291;-67
2022/07/14 05:25:44;;;;;;;8.07;2.37;;;;;204.60;224519.00;;;;5061539;28;20251;-66
2022/07/14 05:28:30;;;;;;;3.70;1.90;;;;;204.60;224519.00;;;;5065571;28;20226;-66
2022/07/14 05:31:17;;;;;;;6.47;1.97;;;;;204.60;224519.00;;;;5063969;28;20633;-66
2022/07/14 05:34:06;;;;;;;4.87;2.10;;;;;204.60;224519.00;;;;5057223;28;20782;-67
2022/07/14 05:36:52;;;;;;;7.90;2.13;;;;;204.60;224519.00;;;;5066033;28;20279;-66
2022/07/14 05:39:39;;;;;;;8.73;2.10;;;;;204.60;224519.00;;;;5064902;28;20301;-66
2022/07/14 05:42:25;;;;;;;7.57;1.73;;;;;204.60;224519.00;;;;5063296;28;20236;-66
2022/07/14 05:45:12;;;;;;;4.43;1.70;;;;;204.60;224519.00;;;;5065122;28;20251;-67
2022/07/14 05:47:58;;;;;;;8.33;1.87;;;;;204.60;224519.00;;;;5053853;28;20308;-67
2022/07/14 05:50:46;;;;;;;10.00;1.90;;;;;204.60;224519.00;;;;5061378;28;20378;-66
2022/07/14 05:53:32;;;;;;;5.03;1.70;;;;;204.60;224519.00;;;;5066837;28;20228;-68
2022/07/14 05:56:21;;;;;;;3.87;1.93;;;;;204.60;224519.00;;;;5059904;28;20747;-67
2022/07/14 05:59:07;;;;;;;4.30;1.70;;;;;204.60;224519.00;;;;5061141;28;20228;-67
2022/07/14 06:02:13;;;;;;;6.60;1.80;;;;;204.60;224519.00;;;;5057972;28;20326;-67
2022/07/14 06:05:00;;;;;;;3.30;1.60;;;;;204.60;224519.00;;;;5058846;28;20382;-65
2022/07/14 06:07:48;;;;;;;8.03;1.87;;;;;204.60;224519.00;;;;5057993;28;20232;-70
2022/07/14 06:10:35;;;;;;;6.13;1.70;;;;;204.60;224519.00;;;;5047062;28;20310;-69
2022/07/14 06:13:21;;;;;;;6.33;1.80;;;;;204.60;224519.00;;;;5053400;28;20363;-67
2022/07/14 06:16:08;;;;;;;4.83;1.47;;;;;204.60;224519.00;;;;5055454;28;20258;-67
2022/07/14 06:18:54;;;;;;;3.40;1.20;;;;;204.60;224519.00;;;;5059242;28;20233;-67
2022/07/14 06:21:41;;;;;;;2.63;1.50;;;;;204.60;224519.00;;;;5056108;28;20228;-66
2022/07/14 06:24:29;;;;;;;6.00;2.47;;;;;204.60;224519.00;;;;5048059;28;20253;-66
2022/07/14 06:27:15;;;;;;;6.20;1.67;;;;;204.60;224519.00;;;;5063809;28;20334;-66
2022/07/14 06:30:05;;;;;;;8.53;1.70;;;;;204.60;224519.00;;;;5059342;28;20233;-68
2022/07/14 06:32:51;;;;;;;4.20;1.67;;;;;204.60;224519.00;;;;5064654;28;22928;-66
2022/07/14 06:35:39;;;;;;;4.83;1.50;;;;;204.60;224519.00;;;;5062841;28;20235;-66
2022/07/14 06:38:45;;;;;;;7.60;1.97;;;;;204.60;224519.00;;;;5064346;28;20294;-64
2022/07/14 06:41:33;;;;;;;5.90;1.60;;;;;204.60;224519.00;;;;5064042;28;20240;-67
2022/07/14 06:44:19;;;;;;;6.13;1.57;;;;;204.60;224519.00;;;;5053547;28;20306;-67
2022/07/14 06:47:12;;;;;;;6.87;1.57;;;;;204.60;224519.00;;;;5059040;28;20583;-67
2022/07/14 06:50:00;;;;;;;6.23;1.83;;;;;204.60;224519.00;;;;5058437;28;20608;-65
2022/07/14 06:52:46;;;;;;;7.17;1.93;;;;;204.60;224519.00;;;;5060716;28;20231;-67
2022/07/14 06:55:32;;;;;;;5.87;1.50;;;;;204.60;224519.00;;;;5061977;28;20272;-67
2022/07/14 06:58:19;;;;;;;3.13;1.40;;;;;204.60;224519.00;;;;5057311;28;20231;-67
2022/07/14 07:01:06;;;;;;;5.37;1.23;;;;;204.60;224519.00;;;;5056687;28;20224;-67
2022/07/14 07:03:53;;;;;;;3.73;1.33;;;;;204.60;224519.00;;;;5063523;28;20251;-67
2022/07/14 07:06:45;;;;;;;5.03;1.40;;;;;204.60;224519.00;;;;5062325;28;20278;-66
2022/07/14 07:09:32;;;;;;;3.83;1.53;;;;;204.60;224519.00;;;;5051564;28;20225;-66
2022/07/14 07:12:18;;;;;;;3.13;1.20;;;;;204.60;224519.00;;;;5057296;28;20262;-66
2022/07/14 07:15:07;;;;;;;4.57;1.50;;;;;204.60;224519.00;;;;5060669;28;21525;-66
2022/07/14 07:17:54;;;;;;;8.63;1.40;;;;;204.60;224519.00;;;;5060954;28;20302;-67
2022/07/14 07:20:40;;;;;;;7.07;1.50;;;;;204.60;224519.00;;;;5060785;28;20240;-66
2022/07/14 07:23:27;;;;;;;6.67;1.40;;;;;204.60;224519.00;;;;5065463;28;20240;-67
2022/07/14 07:26:13;;;;;;;4.13;1.70;;;;;204.60;224519.00;;;;5062452;28;20294;-67
2022/07/14 07:29:00;;;;;;;4.40;1.63;;;;;204.60;224519.00;;;;5059666;28;20239;-68
2022/07/14 07:31:51;;;;;;;3.60;1.53;;;;;204.60;224519.00;;;;5068308;28;20239;-67
2022/07/14 07:34:37;;;;;;;7.63;1.70;;;;;204.60;224519.00;;;;5068240;28;20240;-66
2022/07/14 07:37:23;;;;;;;2.17;1.20;;;;;204.60;224519.00;;;;5067906;28;20227;-65
2022/07/14 07:40:14;;;;;;;4.07;1.50;;;;;204.60;224519.00;;;;5070146;28;20227;-67
2022/07/14 07:43:00;;;;;;;5.07;1.20;;;;;204.60;224519.00;;;;5060246;28;20363;-67
2022/07/14 07:45:47;;;;;;;1.87;1.30;;;;;204.60;224519.00;;;;5059998;28;20228;-67
2022/07/14 07:48:34;;;;;;;5.73;1.40;;;;;204.60;224519.00;;;;5069512;28;20814;-67
2022/07/14 07:51:21;;;;;;;5.37;1.60;;;;;204.60;224519.00;;;;5063766;28;20243;-66
2022/07/14 07:54:08;;;;;;;6.83;1.53;;;;;204.60;224519.00;;;;5058825;28;20231;-66
2022/07/14 07:56:54;;;;;;;5.53;1.53;;;;;204.60;224519.00;;;;5059329;28;20648;-67
2022/07/14 07:59:41;;;;;;;1.77;1.30;;;;;204.60;224519.00;;;;5064523;28;20227;-67
2022/07/14 08:02:27;;;;;;;4.30;1.80;;;;;204.60;224519.00;;;;5067740;28;20750;-67
2022/07/14 08:05:16;;;;;;;3.07;1.30;;;;;204.60;224519.00;;;;5064936;28;20231;-68
2022/07/14 08:08:22;;;;;;;5.43;1.20;;;;;204.60;224519.00;;;;5061556;28;20231;-66
2022/07/14 08:11:08;;;;;;;3.23;1.10;;;;;204.60;224519.00;;;;5060893;28;20306;-66
2022/07/14 08:13:56;;;;;;;3.73;1.30;;;;;204.60;224519.00;;;;5068967;28;20232;-67
2022/07/14 08:16:42;;;;;;;1.53;1.10;;;;;204.60;224519.00;;;;5066402;28;20224;-66
2022/07/14 08:19:29;;;;;;;4.70;1.40;;;;;204.60;224519.00;;;;5063990;28;20228;-65
2022/07/14 08:22:22;;;;;;;4.40;1.30;;;;;204.60;224519.00;;;;5061858;28;20232;-65
2022/07/14 08:25:10;;;;;;;1.13;1.00;;;;;204.60;224519.00;;;;5060708;28;20243;-65
2022/07/14 08:27:57;;;;;;;9.47;1.27;;;;;204.60;224519.00;;;;5066399;28;20228;-65
2022/07/14 08:30:43;;;;;;;4.40;1.27;;;;;204.60;224519.00;;;;5062750;28;20228;-65
2022/07/14 08:33:30;;;;;;;3.23;1.20;;;;;204.60;224519.00;;;;5062853;28;20231;-66
2022/07/14 08:36:16;;;;;;;5.20;1.40;;;;;204.60;224519.00;;;;5068403;28;20248;-65
2022/07/14 08:39:05;;;;;;;4.27;1.20;;;;;204.60;224519.00;;;;5059564;28;20611;-65
2022/07/14 08:41:54;;;;;;;2.50;1.20;;;;;204.60;224519.00;;;;5064553;28;20252;-66
2022/07/14 08:44:41;;;;;;;3.03;1.10;;;;;204.60;224519.00;;;;5067242;28;20761;-66
2022/07/14 08:47:28;;;;;;;3.93;1.10;;;;;204.60;224519.00;;;;5057932;28;20232;-65
2022/07/14 08:50:17;;;;;;;4.60;1.40;;;;;204.60;224519.00;;;;5062198;28;20360;-66
2022/07/14 08:53:04;;;;;;;4.53;1.50;;;;;204.60;224519.00;;;;5057322;28;20610;-65
2022/07/14 08:55:55;;;;;;;1.77;1.00;;;;;204.60;224519.00;;;;5059586;28;20227;-65
2022/07/14 08:58:43;;;;;;;2.47;1.30;;;;;204.60;224519.00;;;;5064337;28;20235;-66
2022/07/14 09:01:29;;;;;;;3.87;1.33;;;;;204.60;224519.00;;;;5058252;28;20233;-66
2022/07/14 09:04:15;;;;;;;6.43;1.33;;;;;204.60;224519.00;;;;5061238;28;20232;-65
2022/07/14 09:07:02;;;;;;;8.60;1.10;;;;;204.60;224519.00;;;;5050675;28;20710;-65
2022/07/14 09:10:00;;;;;;;5.67;1.23;;;;;204.60;224519.00;;;;5065420;28;20225;-64
2022/07/14 09:12:48;;;;;;;4.53;1.20;;;;;204.60;224519.00;;;;5064582;28;20244;-64
2022/07/14 09:15:46;;;;;;;4.23;1.40;;;;;204.60;224519.00;;;;5061798;28;20253;-63
2022/07/14 09:18:33;;;;;;;2.03;1.00;;;;;204.60;224519.00;;;;5058062;28;20739;-64
2022/07/14 09:21:21;;;;;;;3.03;1.23;;;;;204.60;224519.00;;;;5058869;28;20230;-64
2022/07/14 09:24:07;;;;;;;1.87;1.00;;;;;204.60;224519.00;;;;5061385;28;20721;-65
2022/07/14 09:26:56;;;;;;;3.50;1.30;;;;;204.60;224519.00;;;;5065947;28;20231;-64
2022/07/14 09:29:43;;;;;;;5.07;1.23;;;;;204.60;224519.00;;;;5066175;28;20759;-65
2022/07/14 09:32:44;;;;;;;2.17;1.00;;;;;204.60;224519.00;;;;5062231;28;20637;-67
2022/07/14 09:35:41;;;;;;;2.97;1.13;;;;;204.60;224519.00;;;;5060494;28;20232;-65
2022/07/14 09:38:29;;;;;;;2.43;1.00;;;;;204.60;224519.00;;;;5062602;28;20360;-65
2022/07/14 09:41:15;;;;;;;3.60;1.10;;;;;204.60;224519.00;;;;5060296;28;20234;-65
2022/07/14 09:44:10;;;;;;;2.10;0.87;;;;;204.60;224519.00;;;;5064419;28;20246;-65
2022/07/14 09:46:58;;;;;;;4.27;1.07;;;;;204.60;224519.00;;;;5059928;28;20234;-65
2022/07/14 09:49:45;;;;;;;6.20;1.33;;;;;204.60;224519.00;;;;5062620;28;20407;-64
2022/07/14 09:52:51;;;;;;;6.43;1.20;;;;;204.60;224519.00;;;;5058560;28;20608;-65
2022/07/14 09:55:39;;;;;;;4.43;1.20;;;;;204.60;224519.00;;;;5064397;28;20223;-65
2022/07/14 09:58:28;;;;;;;1.53;1.17;;;;;204.60;224519.00;;;;5060650;28;20310;-65
2022/07/14 10:01:24;;;;;;;2.30;1.33;;;;;204.60;224519.00;;;;5058887;28;20240;-66
2022/07/14 10:04:12;;;;;;;3.17;1.40;;;;;204.60;224519.00;;;;5062494;28;20734;-65
2022/07/14 10:06:59;;;;;;;2.83;1.20;;;;;204.60;224519.00;;;;5062218;28;20705;-66
2022/07/14 10:09:50;;;;;;;2.33;1.13;;;;;204.60;224519.00;;;;5060692;28;20232;-66
2022/07/14 10:12:38;;;;;;;1.77;1.23;;;;;204.60;224519.00;;;;5063887;28;20283;-66
2022/07/14 10:15:25;;;;;;;2.17;1.33;;;;;204.60;224519.00;;;;5059662;28;20277;-67
2022/07/14 10:18:13;;;;;;;6.53;1.30;;;;;204.60;224519.00;;;;5061375;28;20290;-67
2022/07/14 10:21:04;;;;;;;3.80;1.27;;;;;204.60;224519.00;;;;5064726;28;20374;-65
2022/07/14 10:23:51;;;;;;;2.97;1.30;;;;;204.60;224519.00;;;;5062531;28;20310;-66
2022/07/14 10:26:38;;;;;;;1.70;1.33;;;;;204.60;224519.00;;;;5064337;28;20232;-66
2022/07/14 10:29:25;;;;;;;6.40;1.73;;;;;204.60;224519.00;;;;5049685;28;20713;-66
2022/07/14 10:32:21;;;;;;;2.10;1.37;;;;;204.60;224519.00;;;;5059733;28;20232;-66
2022/07/14 10:35:21;;;;;;;2.97;1.30;;;;;204.60;224519.00;;;;5063891;28;20253;-66
2022/07/14 10:38:26;;;;;;;2.67;1.20;;;;;204.60;224519.00;;;;5065064;28;20450;-66
2022/07/14 10:41:25;;;;;;;1.80;1.03;;;;;204.60;224519.00;;;;5055586;28;20227;-66
2022/07/14 10:44:17;;;;;;;1.10;1.00;;;;;204.60;224519.00;;;;5056378;28;20301;-66
2022/07/14 10:47:09;;;;;;;2.10;1.50;;;;;204.60;224519.00;;;;5062651;28;20291;-65
2022/07/14 10:50:06;;;;;;;1.20;1.03;;;;;204.60;224519.00;;;;5063982;28;20227;-68
2022/07/14 10:53:02;;;;;;;2.73;1.20;;;;;204.60;224519.00;;;;5056141;28;20236;-68
2022/07/14 10:55:51;;;;;;;1.73;1.23;;;;;204.60;224519.00;;;;5054581;28;20228;-67
2022/07/14 10:58:39;;;;;;;2.93;1.30;;;;;204.60;224519.00;;;;5058773;28;20223;-68
2022/07/14 11:01:25;;;;;;;1.07;1.00;;;;;204.60;224519.00;;;;5055157;28;20228;-67
2022/07/14 11:04:11;;;;;;;1.30;1.20;;;;;204.60;224519.00;;;;5056514;28;20974;-68
2022/07/14 11:07:31;;;;;;;3.83;1.20;;;;;204.60;224519.00;;;;5048665;28;20228;-68
2022/07/14 11:11:08;;;;;;;2.53;1.20;;;;;204.60;224519.00;;;;5053409;28;20236;-67
2022/07/14 11:14:10;;;;;;;2.73;1.30;;;;;204.60;224519.00;;;;5063759;28;20366;-67
2022/07/14 11:16:59;;;;;;;1.60;1.30;;;;;204.60;224519.00;;;;5058664;28;20719;-68
2022/07/14 11:19:52;;;;;;;3.33;1.17;;;;;204.60;224519.00;;;;5062802;28;20223;-67
2022/07/14 11:22:40;;;;;;;1.93;1.10;;;;;204.60;224519.00;;;;5055017;28;20311;-67
2022/07/14 11:25:28;;;;;;;2.43;1.23;;;;;204.60;224519.00;;;;5060494;28;20259;-66
2022/07/14 11:28:38;;;;;;;6.67;1.10;;;;;204.60;224519.00;;;;5057328;28;20631;-67
2022/07/14 11:31:27;;;;;;;1.60;1.33;;;;;204.60;224519.00;;;;5065000;28;20244;-66
2022/07/14 11:37:25;;;;;;;2.40;1.20;;;;;204.60;224519.00;;;;5059406;28;20645;-66
2022/07/14 11:40:47;;;;;;;1.33;1.20;;;;;204.60;224519.00;;;;5063459;28;20227;-68
2022/07/14 11:43:42;;;;;;;4.67;1.53;;;;;204.60;224519.00;;;;5048337;28;20231;-66
2022/07/14 11:46:30;;;;;;;1.23;1.13;;;;;204.60;224519.00;;;;5059906;28;20228;-66
2022/07/14 11:49:22;;;;;;;2.80;1.50;;;;;204.60;224519.00;;;;5063647;28;20617;-66
2022/07/14 11:52:09;;;;;;;1.73;1.60;;;;;204.60;224519.00;;;;5062485;28;20228;-66
2022/07/14 11:54:56;;;;;;;4.27;2.03;;;;;204.60;224519.00;;;;5064621;28;20239;-67
2022/07/14 11:57:50;;;;;;;1.30;1.20;;;;;204.60;224519.00;;;;5062740;28;20640;-67
2022/07/14 12:00:37;;;;;;;1.53;1.30;;;;;204.60;224519.00;;;;5054276;28;20312;-66
2022/07/14 12:03:28;;;;;;;1.93;1.20;;;;;204.60;224519.00;;;;5062004;28;20237;-67
2022/07/14 12:06:14;;;;;;;3.23;1.20;;;;;204.60;224519.00;;;;5051077;28;20291;-68
2022/07/14 12:09:01;;;;;;;2.77;1.20;;;;;204.60;224519.00;;;;5063007;28;20283;-67
2022/07/14 12:12:07;;;;;;;1.33;1.20;;;;;204.60;224519.00;;;;5064389;28;20354;-67
2022/07/14 12:14:54;;;;;;;1.37;1.10;;;;;204.60;224519.00;;;;5067736;28;20310;-66
2022/07/14 12:17:47;;;;;;;4.03;1.27;;;;;204.60;224519.00;;;;5064585;28;20691;-67
2022/07/14 12:20:41;;;;;;;4.13;1.33;;;;;204.60;224519.00;;;;5065859;28;20694;-66
2022/07/14 12:23:28;;;;;;;2.77;1.00;;;;;204.60;224519.00;;;;5068143;28;20704;-68
2022/07/14 12:26:18;;;;;;;1.20;1.10;;;;;204.60;224519.00;;;;5067226;28;20232;-69
2022/07/14 12:29:06;;;;;;;2.67;1.20;;;;;204.60;224519.00;;;;5059431;28;20272;-67
2022/07/14 12:31:53;;;;;;;1.37;1.20;;;;;204.60;224519.00;;;;5064079;28;20311;-66
2022/07/14 12:34:39;;;;;;;1.20;1.10;;;;;204.60;224519.00;;;;5061578;28;20333;-65
2022/07/14 12:37:27;;;;;;;1.20;1.10;;;;;204.60;224519.00;;;;5061590;28;20294;-67
2022/07/14 12:40:34;;;;;;;0.97;0.97;;;;;204.60;224519.00;;;;5061764;28;20227;-66
2022/07/14 12:43:21;;;;;;;1.58;1.10;;;;;204.60;224519.00;;;;5060932;28;20236;-66
2022/07/14 12:46:10;;;;;;;2.10;1.20;;;;;204.60;224519.00;;;;5065027;28;20261;-65
2022/07/14 12:49:00;;;;;;;1.10;1.00;;;;;204.60;224519.00;;;;5057075;28;20672;-66
2022/07/14 12:51:46;;;;;;;1.67;1.05;;;;;204.60;224519.00;;;;5062431;28;20309;-67
2022/07/14 12:54:35;;;;;;;1.53;1.10;;;;;204.60;224519.00;;;;5059239;28;20243;-67
2022/07/14 12:57:41;;;;;;;2.37;1.20;;;;;204.60;224519.00;;;;5057029;28;20232;-67
2022/07/14 13:00:31;;;;;;;0.98;0.90;;;;;204.60;224519.00;;;;5054202;28;20962;-66
2022/07/14 13:03:19;;;;;;;1.52;1.00;;;;;204.60;224519.00;;;;5058340;28;20227;-67
2022/07/14 13:06:06;;;;;;;1.08;0.98;;;;;204.60;224519.00;;;;5056880;28;20241;-65
2022/07/14 13:08:53;;;;;;;3.33;1.13;;;;;204.60;224519.00;;;;5065364;28;20240;-66
2022/07/14 13:11:41;;;;;;;1.27;1.17;;;;;204.60;224519.00;;;;5060402;28;20216;-66
2022/07/14 13:14:27;;;;;;;1.10;0.90;;;;;204.60;224519.00;;;;5061002;28;20244;-66
2022/07/14 13:17:14;;;;;;;0.88;0.88;;;;;204.60;224519.00;;;;5057244;28;20294;-66
2022/07/14 13:20:00;;;;;;;0.90;0.90;;;;;204.60;224519.00;;;;5065911;28;20235;-67
2022/07/14 13:22:56;;;;;;;1.00;1.00;;;;;204.60;224519.00;;;;5063431;28;20235;-67
2022/07/14 13:25:44;;;;;;;1.30;1.07;;;;;204.60;224519.00;;;;5058294;28;20381;-68
2022/07/14 13:28:36;;;;;;;1.27;1.00;;;;;204.60;224519.00;;;;5064829;28;20228;-66
2022/07/14 13:31:25;;;;;;;1.53;1.10;;;;;204.60;224519.00;;;;5060101;28;20298;-69
2022/07/14 13:34:17;;;;;;;2.50;1.10;;;;;204.60;224519.00;;;;5060128;28;20240;-67
2022/07/14 13:37:04;;;;;;;3.63;1.20;;;;;204.60;224519.00;;;;5064664;28;20260;-68
2022/07/14 13:39:51;;;;;;;1.67;1.07;;;;;204.60;224519.00;;;;5067839;28;20290;-67
2022/07/14 13:42:37;;;;;;;2.80;1.10;;;;;204.60;224519.00;;;;5059744;28;20278;-65
2022/07/14 13:45:25;;;;;;;2.03;1.10;;;;;204.60;224519.00;;;;5061540;28;20228;-67
2022/07/14 13:48:11;;;;;;;3.78;1.10;;;;;204.60;224519.00;;;;5065412;28;20255;-67
2022/07/14 13:54:02;;;;;;;1.92;1.20;;;;;204.60;224519.00;;;;5064726;28;20234;-64
2022/07/14 13:56:48;;;;;;;2.92;1.30;;;;;204.60;224519.00;;;;5061535;28;20254;-67